sensor_id;sensor_type;location;lat;lon;timestamp;P1;durP1;ratioP1;P2;durP2;ratioP2
1877;SDS011;939;51.426;6.972;2023-06-14T00:10:26;5.27;;;3.67;;
1877;SDS011;939;51.426;6.972;2023-06-14T00:12:56;5.87;;;4.00;;
1877;SDS011;939;51.426;6.972;2023-06-14T00:15:25;3.33;;;3.03;;
1877;SDS011;939;51.426;6.972;2023-06-14T00:17:56;5.73;;;3.90;;
1877;SDS011;939;51.426;6.972;2023-06-14T00:20:25;5.97;;;3.50;;
1877;SDS011;939;51.426;6.972;2023-06-14T00:22:59;4.77;;;3.50;;
1877;SDS011;939;51.426;6.972;2023-06-14T00:25:28;7.43;;;4.37;;
1877;SDS011;939;51.426;6.972;2023-06-14T00:27:55;4.60;;;4.10;;
1877;SDS011;939;51.426;6.972;2023-06-14T00:30:23;5.57;;;4.00;;
1877;SDS011;939;51.426;6.972;2023-06-14T00:32:50;5.10;;;3.40;;
1877;SDS011;939;51.426;6.972;2023-06-14T00:35:17;7.73;;;5.33;;
1877;SDS011;939;51.426;6.972;2023-06-14T00:37:44;8.23;;;3.63;;
1877;SDS011;939;51.426;6.972;2023-06-14T00:40:11;4.23;;;3.17;;
1877;SDS011;939;51.426;6.972;2023-06-14T00:42:41;6.20;;;4.10;;
1877;SDS011;939;51.426;6.972;2023-06-14T00:45:09;5.73;;;4.00;;
1877;SDS011;939;51.426;6.972;2023-06-14T00:47:36;4.90;;;4.13;;
1877;SDS011;939;51.426;6.972;2023-06-14T00:50:06;6.50;;;3.70;;
1877;SDS011;939;51.426;6.972;2023-06-14T00:52:33;14.43;;;4.17;;
1877;SDS011;939;51.426;6.972;2023-06-14T00:55:01;10.03;;;4.40;;
1877;SDS011;939;51.426;6.972;2023-06-14T00:57:30;3.60;;;2.97;;
1877;SDS011;939;51.426;6.972;2023-06-14T00:59:59;4.13;;;3.43;;
1877;SDS011;939;51.426;6.972;2023-06-14T01:02:27;3.73;;;3.33;;
1877;SDS011;939;51.426;6.972;2023-06-14T01:04:55;6.07;;;4.20;;
1877;SDS011;939;51.426;6.972;2023-06-14T01:07:30;4.00;;;3.20;;
1877;SDS011;939;51.426;6.972;2023-06-14T01:10:08;3.67;;;2.80;;
1877;SDS011;939;51.426;6.972;2023-06-14T01:12:47;11.20;;;4.00;;
1877;SDS011;939;51.426;6.972;2023-06-14T01:15:23;3.60;;;2.93;;
1877;SDS011;939;51.426;6.972;2023-06-14T01:17:53;5.47;;;3.53;;
1877;SDS011;939;51.426;6.972;2023-06-14T01:20:28;8.10;;;4.00;;
1877;SDS011;939;51.426;6.972;2023-06-14T01:22:57;5.50;;;3.60;;
1877;SDS011;939;51.426;6.972;2023-06-14T01:25:25;8.20;;;3.43;;
1877;SDS011;939;51.426;6.972;2023-06-14T01:27:53;6.13;;;3.97;;
1877;SDS011;939;51.426;6.972;2023-06-14T01:30:24;4.70;;;3.20;;
1877;SDS011;939;51.426;6.972;2023-06-14T01:32:53;5.07;;;3.70;;
1877;SDS011;939;51.426;6.972;2023-06-14T01:35:21;5.37;;;3.60;;
1877;SDS011;939;51.426;6.972;2023-06-14T01:37:49;6.93;;;3.97;;
1877;SDS011;939;51.426;6.972;2023-06-14T01:40:19;5.83;;;2.63;;
1877;SDS011;939;51.426;6.972;2023-06-14T01:42:49;6.33;;;4.03;;
1877;SDS011;939;51.426;6.972;2023-06-14T01:45:17;3.63;;;2.27;;
1877;SDS011;939;51.426;6.972;2023-06-14T01:47:46;6.90;;;3.80;;
1877;SDS011;939;51.426;6.972;2023-06-14T01:50:14;7.50;;;3.70;;
1877;SDS011;939;51.426;6.972;2023-06-14T01:52:41;5.13;;;3.33;;
1877;SDS011;939;51.426;6.972;2023-06-14T01:55:09;4.60;;;3.23;;
1877;SDS011;939;51.426;6.972;2023-06-14T01:57:37;2.93;;;2.63;;
1877;SDS011;939;51.426;6.972;2023-06-14T02:00:04;4.23;;;2.73;;
1877;SDS011;939;51.426;6.972;2023-06-14T02:02:35;3.40;;;3.10;;
1877;SDS011;939;51.426;6.972;2023-06-14T02:05:02;4.63;;;3.40;;
1877;SDS011;939;51.426;6.972;2023-06-14T02:07:30;6.20;;;2.77;;
1877;SDS011;939;51.426;6.972;2023-06-14T02:09:57;6.13;;;4.00;;
1877;SDS011;939;51.426;6.972;2023-06-14T02:12:23;5.30;;;2.73;;
1877;SDS011;939;51.426;6.972;2023-06-14T02:14:52;6.50;;;2.93;;
1877;SDS011;939;51.426;6.972;2023-06-14T02:17:19;4.53;;;2.90;;
1877;SDS011;939;51.426;6.972;2023-06-14T02:19:46;5.37;;;3.40;;
1877;SDS011;939;51.426;6.972;2023-06-14T02:22:13;18.87;;;3.80;;
1877;SDS011;939;51.426;6.972;2023-06-14T02:24:40;4.93;;;3.53;;
1877;SDS011;939;51.426;6.972;2023-06-14T02:27:08;6.30;;;3.70;;
1877;SDS011;939;51.426;6.972;2023-06-14T02:29:37;3.97;;;3.40;;
1877;SDS011;939;51.426;6.972;2023-06-14T02:32:06;5.20;;;3.90;;
1877;SDS011;939;51.426;6.972;2023-06-14T02:34:34;6.67;;;3.00;;
1877;SDS011;939;51.426;6.972;2023-06-14T02:37:01;3.73;;;2.70;;
1877;SDS011;939;51.426;6.972;2023-06-14T02:39:28;6.50;;;2.83;;
1877;SDS011;939;51.426;6.972;2023-06-14T02:41:55;3.10;;;2.80;;
1877;SDS011;939;51.426;6.972;2023-06-14T02:44:24;3.13;;;2.83;;
1877;SDS011;939;51.426;6.972;2023-06-14T02:46:53;5.60;;;3.40;;
1877;SDS011;939;51.426;6.972;2023-06-14T02:49:22;4.60;;;3.37;;
1877;SDS011;939;51.426;6.972;2023-06-14T02:51:49;6.70;;;3.13;;
1877;SDS011;939;51.426;6.972;2023-06-14T02:54:16;5.00;;;4.03;;
1877;SDS011;939;51.426;6.972;2023-06-14T02:56:43;2.77;;;2.43;;
1877;SDS011;939;51.426;6.972;2023-06-14T02:59:10;4.57;;;3.33;;
1877;SDS011;939;51.426;6.972;2023-06-14T03:01:38;3.70;;;3.30;;
1877;SDS011;939;51.426;6.972;2023-06-14T03:04:06;4.83;;;3.47;;
1877;SDS011;939;51.426;6.972;2023-06-14T08:18:33;2.37;;;1.67;;
1877;SDS011;939;51.426;6.972;2023-06-14T08:27:29;1.90;;;1.50;;
1877;SDS011;939;51.426;6.972;2023-06-14T08:44:14;3.03;;;1.90;;
1877;SDS011;939;51.426;6.972;2023-06-14T21:32:54;2.13;;;1.60;;
1877;SDS011;939;51.426;6.972;2023-06-14T21:59:34;2.43;;;1.60;;
1877;SDS011;939;51.426;6.972;2023-06-14T22:02:01;2.77;;;1.97;;
1877;SDS011;939;51.426;6.972;2023-06-14T22:04:28;2.53;;;1.90;;
1877;SDS011;939;51.426;6.972;2023-06-14T22:06:55;3.73;;;2.10;;
1877;SDS011;939;51.426;6.972;2023-06-14T22:09:23;3.07;;;2.50;;
1877;SDS011;939;51.426;6.972;2023-06-14T22:11:51;2.33;;;2.13;;
1877;SDS011;939;51.426;6.972;2023-06-14T22:14:18;3.73;;;2.30;;
1877;SDS011;939;51.426;6.972;2023-06-14T22:16:48;1.90;;;1.50;;
1877;SDS011;939;51.426;6.972;2023-06-14T22:19:16;2.30;;;1.90;;
1877;SDS011;939;51.426;6.972;2023-06-14T22:21:44;2.53;;;2.17;;
1877;SDS011;939;51.426;6.972;2023-06-14T22:24:16;7.97;;;2.83;;
1877;SDS011;939;51.426;6.972;2023-06-14T22:26:44;2.30;;;1.80;;
1877;SDS011;939;51.426;6.972;2023-06-14T22:29:12;2.73;;;2.50;;
1877;SDS011;939;51.426;6.972;2023-06-14T22:31:42;3.87;;;2.00;;
1877;SDS011;939;51.426;6.972;2023-06-14T22:34:10;3.50;;;2.33;;
1877;SDS011;939;51.426;6.972;2023-06-14T22:36:37;2.70;;;2.10;;
1877;SDS011;939;51.426;6.972;2023-06-14T22:39:05;2.93;;;2.20;;
1877;SDS011;939;51.426;6.972;2023-06-14T22:41:33;1.87;;;1.60;;
1877;SDS011;939;51.426;6.972;2023-06-14T22:44:02;3.20;;;2.23;;
1877;SDS011;939;51.426;6.972;2023-06-14T22:46:30;4.77;;;2.70;;
1877;SDS011;939;51.426;6.972;2023-06-14T22:48:58;2.43;;;1.90;;
1877;SDS011;939;51.426;6.972;2023-06-14T22:51:28;3.00;;;2.10;;
1877;SDS011;939;51.426;6.972;2023-06-14T22:53:55;4.43;;;2.30;;
1877;SDS011;939;51.426;6.972;2023-06-14T22:56:22;2.53;;;1.77;;
1877;SDS011;939;51.426;6.972;2023-06-14T22:58:50;3.23;;;2.27;;
1877;SDS011;939;51.426;6.972;2023-06-14T23:01:19;2.77;;;1.93;;
1877;SDS011;939;51.426;6.972;2023-06-14T23:03:51;2.60;;;2.40;;
1877;SDS011;939;51.426;6.972;2023-06-14T23:06:18;3.60;;;2.17;;
1877;SDS011;939;51.426;6.972;2023-06-14T23:08:51;3.40;;;2.53;;
1877;SDS011;939;51.426;6.972;2023-06-14T23:11:21;2.40;;;2.00;;
1877;SDS011;939;51.426;6.972;2023-06-14T23:13:49;2.63;;;2.10;;
1877;SDS011;939;51.426;6.972;2023-06-14T23:16:18;3.23;;;1.83;;
1877;SDS011;939;51.426;6.972;2023-06-14T23:18:46;4.20;;;2.33;;
1877;SDS011;939;51.426;6.972;2023-06-14T23:21:16;2.90;;;2.13;;
1877;SDS011;939;51.426;6.972;2023-06-14T23:23:44;8.00;;;2.30;;
1877;SDS011;939;51.426;6.972;2023-06-14T23:26:14;2.60;;;1.83;;
1877;SDS011;939;51.426;6.972;2023-06-14T23:28:41;2.43;;;1.87;;
1877;SDS011;939;51.426;6.972;2023-06-14T23:31:10;7.13;;;2.10;;
1877;SDS011;939;51.426;6.972;2023-06-14T23:33:38;2.37;;;1.70;;
1877;SDS011;939;51.426;6.972;2023-06-14T23:36:06;2.80;;;2.20;;
1877;SDS011;939;51.426;6.972;2023-06-14T23:38:35;4.23;;;2.40;;
1877;SDS011;939;51.426;6.972;2023-06-14T23:41:07;2.83;;;2.00;;
1877;SDS011;939;51.426;6.972;2023-06-14T23:43:36;2.67;;;2.07;;
1877;SDS011;939;51.426;6.972;2023-06-14T23:46:06;3.10;;;2.30;;
1877;SDS011;939;51.426;6.972;2023-06-14T23:48:34;2.57;;;2.03;;
1877;SDS011;939;51.426;6.972;2023-06-14T23:51:01;7.70;;;2.40;;
1877;SDS011;939;51.426;6.972;2023-06-14T23:53:29;2.70;;;1.63;;
1877;SDS011;939;51.426;6.972;2023-06-14T23:55:57;2.73;;;2.27;;
1877;SDS011;939;51.426;6.972;2023-06-14T23:58:26;13.50;;;2.53;;
